Tiempo atmosférico en la estación meteorológica de Oroz-Betelu/Orotz-Betelu, Navarra (635 m.)



Fecha
DESCASC
Temp. máxima en grados centígrados (hora)
DESCASC
Temp. mínima en grados centígrados (hora)
DESCASC
Temp. media en grados centígrados
DESCASC
Racha de viento máxima en m/sg (hora)
DESCASC
Velocidad máxima media en intervalos de 10 minutos(hora)
DESCASC
Precipitaciones diarias en mm
DESCASC
Precipitaciones de 00:00 a 06:00 en mm
DESCASC
Precipitaciones de 06:00 a 12:00 en mm
DESCASC
Precipitaciones de 12:00 a 18:00 en mm
DESCASC
Precipitaciones de 18:00 a 24:00 en mm
DESCASC
28-02-2021 9.3 (11:30) 1.8 (03:00) 5.6 11.39 (00:20) 7.5 (00:20) 4.4 0 0 4.2 0.2
27-02-2021 11 (14:40) 6.1 (23:59) 8.5 16.94 (16:20) 10.28 (16:40) 0 0 0 0 0
26-02-2021 15.1 (14:00) 2.9 (07:50) 9 9.17 (18:40) 7.22 (18:10) 0 0 0 0 0
25-02-2021 15.6 (15:00) 2.3 (00:00) 9 7.78 (11:30) 5.56 (11:30) 0 0 0 0 0
24-02-2021 18 (15:30) 6.5 (00:00) 12.3 16.39 (13:40) 8.33 (15:00) 0 0 0 0 0
23-02-2021 13.8 (15:10) 1.5 (00:00) 7.7 17.78 (15:40) 8.61 (09:50) 0 0 0 0 0
22-02-2021 11 (00:00) 1.8 (00:00) 6.4 13.61 (05:50) 7.5 (05:50) 26.6 6.6 16.4 3.6 0
21-02-2021 17 (12:50) 11 (00:00) 14 21.11 (04:20) 11.39 (03:30) 0.2 0 0 0 0.2
20-02-2021 19.8 (14:50) 13.8 (00:00) 16.8 22.5 (03:40) 11.94 (03:20) 0 0 0 0 0
19-02-2021 17.1 (15:40) 10.5 (00:00) 13.8 18.33 (11:50) 10.56 (13:10) 0 0 0 0 0
18-02-2021 16.4 (15:50) 6.4 (00:00) 11.4 15 (09:00) 7.78 (08:50) 0 0 0 0 0
17-02-2021 15.5 (14:10) 2.9 (00:00) 9.2 11.11 (14:50) 5.56 (16:40) 0 0 0 0 0
16-02-2021 13.4 (15:10) 1.6 (00:00) 7.5 13.06 (12:00) 7.78 (11:10) 0 0 0 0 0
15-02-2021 14 (14:30) 2 (00:00) 8 9.72 (15:10) 6.94 (15:00) 0 0 0 0 0
14-02-2021 13.8 (14:40) 0 (00:00) 6.9 11.67 (13:10) 6.67 (16:00) 0 0 0 0 0
13-02-2021 13 (13:10) 2.1 (00:00) 7.5 9.44 (13:30) 5.28 (13:30) 0.4 0.4 0 0 0
12-02-2021 11.7 (05:00) 5.3 (00:00) 8.5 11.94 (04:40) 6.67 (04:40) 19.4 0 9.6 4.6 5.2
11-02-2021 13.4 (16:20) 0.3 (00:00) 6.8 4.44 (15:40) 2.78 (15:30) 0 0 0 0 0
10-02-2021 6.6 (14:10) 1.7 (00:00) 4.1 12.5 (01:40) 5.83 (01:40) 8.8 1 6.6 1.2 0
09-02-2021 8.3 (12:50) 3.5 (00:00) 5.9 17.78 (08:20) 10.56 (08:20) 3.2 0 0.8 2 0.4
08-02-2021 8.7 (17:10) 3.3 (00:00) 6 11.11 (18:00) 2.78 (18:00) 7.4 3 1.4 2 1
07-02-2021 6.8 (16:30) 2.2 (00:00) 4.5 7.78 (01:20) 3.89 (01:20) 4 1 0.6 0 2.4
06-02-2021 8.1 (13:20) 3.4 (00:00) 5.8 8.06 (13:40) 4.44 (13:20) 19.4 0 7.6 9.8 2
05-02-2021 15.6 (16:40) 4.9 (00:00) 10.3 6.67 (00:10) 3.61 (14:30) 0 0 0 0 0
04-02-2021 15.6 (16:30) 8.4 (00:00) 12 11.11 (12:20) 6.39 (06:30) 1.2 1.2 0 0 0
03-02-2021 11.1 (06:30) 8.3 (00:00) 9.7 11.39 (03:20) 6.39 (00:40) 5.6 0 0.4 2.6 2.6
02-02-2021 14.7 (16:20) 5.3 (08:50) 10 11.94 (22:40) 8.61 (22:40) 0.2 0 0.2 0 0
01-02-2021 12 (11:30) 7.6 (00:00) 9.8 13.61 (09:30) 5.28 (09:30) 11 8 0.6 0.2 2.2
31-01-2021 8.2 (17:30) 5.3 (00:00) 6.8 10 (23:50) 5.28 (12:40) 16.4 10.6 1.6 3.2 1

Gráficas

Temp. máximas Temp. mínimas Temp. medias Precipitaciones Rachas de viento máximas Velocidades máximas media en intervalos de 10 minutos

Datos horarios

Fecha y hora oficial Temperatura (ºC) Velocidad del viento (km/h) Dirección del viento Racha (km/h) Dirección de racha Precipitación (mm) Presión (hPa) Tendencia (hPa) Humedad (%)
2021-03-01 23:00:00 -- -- -- -- -- -- -- -- --
2021-03-01 22:00:00 8.6 10 Sudoeste 20 Oeste 0 -- -- 73
2021-03-01 21:00:00 8 3 Nordeste 13 Oeste 0 -- -- 78
2021-03-01 20:00:00 9.2 5 Oeste 16 Sudoeste 0 -- -- 72
2021-03-01 19:00:00 10.1 11 Sudoeste 26 Oeste 0 -- -- 67
2021-03-01 18:00:00 10.5 17 Oeste 35 Sudoeste 0 -- -- 68
2021-03-01 17:00:00 11.4 25 Oeste 34 Oeste 0 -- -- 61
2021-03-01 16:00:00 13.1 17 Oeste 32 Oeste 0 -- -- 56
2021-03-01 15:00:00 12.8 10 Oeste 36 Oeste 0 -- -- 55
2021-03-01 14:00:00 12.7 20 Oeste 38 Oeste 0 -- -- 58
2021-03-01 13:00:00 11.6 11 Oeste 44 Sudoeste 0 -- -- 60
2021-03-01 12:00:00 11.8 22 Sur 45 Sudoeste 0 -- -- 56
2021-03-01 11:00:00 10.7 8 Sudoeste 32 Sudoeste 0 -- -- 62
2021-03-01 10:00:00 8.6 6 Oeste 21 Sudoeste 0 -- -- 73
2021-03-01 09:00:00 7.1 10 Oeste 21 Sudoeste 0 -- -- 76
2021-03-01 08:00:00 6.3 8 Oeste 17 Oeste 0 -- -- 81
2021-03-01 07:00:00 5.3 5 Noroeste 9 Noroeste 0 -- -- 87
2021-03-01 06:00:00 5.8 0 Calma 21 Sudoeste 0 -- -- 83
2021-03-01 05:00:00 7 5 Sudoeste 28 Oeste 0 -- -- 78
2021-03-01 04:00:00 7.7 9 Oeste 41 Sudoeste 0 -- -- 75
2021-03-01 03:00:00 7.7 5 Oeste 22 Sudoeste 0 -- -- 76
2021-03-01 02:00:00 8.1 14 Oeste 26 Oeste 0 -- -- 76
2021-03-01 01:00:00 7.7 7 Noroeste 20 Oeste 0 -- -- 77
2021-03-01 00:00:00 6.7 0 Calma 11 Oeste 0 -- -- 86
2021-02-28 23:00:00 7.8 5 Norte 17 Oeste 0 -- -- 81
2021-02-28 22:00:00 7.8 0 Calma 15 Oeste 0 -- -- 82
2021-02-28 21:00:00 7.1 5 Noroeste 14 Sudoeste 0 -- -- 87
2021-02-28 20:00:00 5.9 2 Este 8 Norte 0 -- -- 91
2021-02-28 19:00:00 7 0 Calma 6 Noroeste 0.2 -- -- 90
2021-02-28 18:00:00 7.9 7 Sudoeste 17 Sudoeste 0.8 -- -- 83
2021-02-28 17:00:00 8.2 7 Oeste 30 Oeste 0.6 -- -- 84
2021-02-28 16:00:00 8.2 8 Oeste 19 Oeste 0.4 -- -- 85
2021-02-28 15:00:00 8.6 5 Noroeste 15 Sudoeste 1.6 -- -- 92
2021-02-28 14:00:00 7.7 3 Norte 19 Nordeste 0.4 -- -- 85
2021-02-28 13:00:00 8.3 4 Nordeste 34 Sudoeste 0.4 -- -- 80
2021-02-28 12:00:00 9.1 5 Sudoeste 11 Sudoeste 0 -- -- 74
2021-02-28 11:00:00 8 4 Sur 7 Sudeste 0 -- -- 74
2021-02-28 10:00:00 5 0 Calma 4 Oeste 0 -- -- 84
2021-02-28 09:00:00 4.2 0 Calma 4 Oeste 0 -- -- 88
2021-02-28 08:00:00 3.3 3 Oeste 11 Nordeste 0 -- -- 90
2021-02-28 07:00:00 2.7 0 Calma 4 Nordeste 0 -- -- 91
2021-02-28 06:00:00 2.4 0 Calma 8 Nordeste 0 -- -- 91
2021-02-28 05:00:00 2.7 0 Calma 4 Oeste 0 -- -- 90
2021-02-28 04:00:00 2.6 3 Sudoeste 9 Oeste 0 -- -- 91
2021-02-28 03:00:00 1.8 0 Calma 5 Nordeste 0 -- -- 89
2021-02-28 02:00:00 3.8 3 Norte 14 Sudeste 0 -- -- 83
2021-02-28 01:00:00 5.6 9 Nordeste 41 Este 0 -- -- 79
2021-02-28 00:00:00 6.1 22 Nordeste 41 Nordeste 0 -- -- 77
2021-02-27 23:00:00 6.8 8 Sur 56 Nordeste 0 -- -- 71
2021-02-27 22:00:00 6.9 16 Nordeste 36 Nordeste 0 -- -- 72
2021-02-27 21:00:00 7 14 Oeste 31 Oeste 0 -- -- 73
2021-02-27 20:00:00 7.3 8 Sur 36 Norte 0 -- -- 73
2021-02-27 19:00:00 8 8 Norte 45 Nordeste 0 -- -- 71
2021-02-27 18:00:00 8.5 35 Nordeste 57 Nordeste 0 -- -- 70
2021-02-27 17:00:00 9.8 34 Nordeste 61 Nordeste 0 -- -- 65
2021-02-27 16:00:00 10.7 24 Norte 55 Nordeste 0 -- -- 59
2021-02-27 15:00:00 10.5 29 Nordeste 50 Nordeste 0 -- -- 58
2021-02-27 14:00:00 10.3 23 Norte 47 Nordeste 0 -- -- 60
2021-02-27 13:00:00 9.3 26 Nordeste 52 Nordeste 0 -- -- 66
2021-02-27 12:00:00 9.8 19 Norte 45 Nordeste 0 -- -- 63
2021-02-27 11:00:00 8.6 30 Nordeste 48 Nordeste 0 -- -- 70
2021-02-27 10:00:00 8 24 Nordeste 45 Nordeste 0 -- -- 80
2021-02-27 09:00:00 7.9 15 Nordeste 37 Nordeste 0 -- -- 80
2021-02-27 08:00:00 7.7 9 Este 38 Norte 0 -- -- 82
2021-02-27 07:00:00 7.8 16 Nordeste 38 Nordeste 0 -- -- 80
2021-02-27 06:00:00 7.8 14 Nordeste 36 Nordeste 0 -- -- 80
2021-02-27 05:00:00 7.9 15 Nordeste 37 Nordeste 0 -- -- 80
2021-02-27 04:00:00 8 10 Este 35 Nordeste 0 -- -- 80
2021-02-27 03:00:00 8.3 16 Sudeste 39 Sudeste 0 -- -- 81
2021-02-27 02:00:00 8.3 15 Este 31 Este 0 -- -- 81
2021-02-27 01:00:00 8.4 10 Este 24 Sudeste 0 -- -- 81
2021-02-27 00:00:00 8.9 9 Este 23 Este 0 -- -- 82
2021-02-26 23:00:00 9.2 10 Nordeste 33 Nordeste 0 -- -- 83
2021-02-26 22:00:00 9.4 10 Nordeste 31 Nordeste 0 -- -- 83
2021-02-26 21:00:00 9.4 9 Nordeste 29 Este 0 -- -- 83
2021-02-26 20:00:00 9.6 17 Nordeste 29 Nordeste 0 -- -- 81
2021-02-26 19:00:00 10 20 Nordeste 33 Nordeste 0 -- -- 80
2021-02-26 18:00:00 11.5 20 Nordeste 30 Nordeste 0 -- -- 74
2021-02-26 17:00:00 13.9 17 Nordeste 28 Nordeste 0 -- -- 65
2021-02-26 16:00:00 14.5 21 Nordeste 28 Nordeste 0 -- -- 64
2021-02-26 15:00:00 14.9 14 Nordeste 22 Nordeste 0 -- -- 62
2021-02-26 14:00:00 15.1 12 Nordeste 17 Nordeste 0 -- -- 63
2021-02-26 13:00:00 14.9 4 Oeste 12 Este 0 -- -- 61
2021-02-26 12:00:00 13 4 Sudeste 15 Nordeste 0 -- -- 69
2021-02-26 11:00:00 10 4 Este 12 Sudeste 0 -- -- 83
2021-02-26 10:00:00 7.2 0 Calma 9 Este 0 -- -- 98
2021-02-26 09:00:00 4.2 2 Este 9 Norte 0 -- -- 99
2021-02-26 08:00:00 2.9 0 Calma 5 Sudoeste 0 -- -- 98
2021-02-26 07:00:00 3.2 0 Calma 5 Oeste 0 -- -- 97
2021-02-26 06:00:00 3.5 0 Calma 6 Nordeste 0 -- -- 96
2021-02-26 05:00:00 4.2 0 Calma 5 Oeste 0 -- -- 96
2021-02-26 04:00:00 4.5 0 Calma 7 Oeste 0 -- -- 96
2021-02-26 03:00:00 4.9 3 Oeste 7 Oeste 0 -- -- 96
2021-02-26 02:00:00 4.8 2 Noroeste 5 Oeste 0 -- -- 97
2021-02-26 01:00:00 4.4 0 Calma 8 Este 0 -- -- 96
2021-02-26 00:00:00 4.2 0 Calma 4 Nordeste 0 -- -- 96
2021-02-25 23:00:00 4.6 0 Calma 3 Norte 0 -- -- 94
2021-02-25 22:00:00 5.2 0 Calma 3 Nordeste 0 -- -- 92
2021-02-25 21:00:00 6.4 2 Este 4 Este 0 -- -- 89
2021-02-25 20:00:00 7.6 0 Calma 4 Norte 0 -- -- 83
2021-02-25 19:00:00 9.7 2 Noroeste 5 Nordeste 0 -- -- 76
2021-02-25 18:00:00 12.8 3 Sudoeste 17 Oeste 0 -- -- 61
2021-02-25 17:00:00 13.8 15 Oeste 25 Oeste 0 -- -- 57
2021-02-25 16:00:00 14.5 16 Oeste 26 Sudoeste 0 -- -- 57
2021-02-25 15:00:00 15.6 14 Oeste 21 Oeste 0 -- -- 55
2021-02-25 14:00:00 14.5 10 Sudoeste 23 Oeste 0 -- -- 58
2021-02-25 13:00:00 12.7 18 Oeste 24 Oeste 0 -- -- 65
2021-02-25 12:00:00 12.3 13 Oeste 28 Oeste 0 -- -- 68
2021-02-25 11:00:00 9.6 9 Sudoeste 19 Sudoeste 0 -- -- 80
2021-02-25 10:00:00 5.8 4 Sur 13 Sudoeste 0 -- -- 99
2021-02-25 09:00:00 3.3 0 Calma 4 Este 0 -- -- 97
2021-02-25 08:00:00 2.3 3 Sudoeste 8 Sudeste 0 -- -- 96
2021-02-25 07:00:00 2.8 0 Calma 3 Nordeste 0 -- -- 95
2021-02-25 06:00:00 3.5 0 Calma 5 Nordeste 0 -- -- 95
2021-02-25 05:00:00 3.5 2 Nordeste 5 Norte 0 -- -- 94
2021-02-25 04:00:00 4 0 Calma 4 Este 0 -- -- 91
2021-02-25 03:00:00 4.6 0 Calma 6 Este 0 -- -- 89
2021-02-25 02:00:00 5.5 2 Sudeste 7 Norte 0 -- -- 87
2021-02-25 01:00:00 5.8 0 Calma 4 Sudeste 0 -- -- 88
2021-02-25 00:00:00 6.5 0 Calma 5 Sur 0 -- -- 86
2021-02-24 23:00:00 7.6 0 Calma 6 Oeste 0 -- -- 81
2021-02-24 22:00:00 8.9 0 Calma 6 Oeste 0 -- -- 75
2021-02-24 21:00:00 9.5 0 Calma 9 Sudoeste 0 -- -- 72
2021-02-24 20:00:00 11.4 3 Nordeste 20 Oeste 0 -- -- 62
2021-02-24 19:00:00 14.5 12 Oeste 44 Oeste 0 -- -- 50
2021-02-24 18:00:00 15.7 23 Sudoeste 53 Sudoeste 0 -- -- 50
2021-02-24 17:00:00 17 23 Sudoeste 45 Oeste 0 -- -- 46
2021-02-24 16:00:00 17.6 26 Sudoeste 51 Oeste 0 -- -- 45
2021-02-24 15:00:00 17.5 30 Oeste 53 Oeste 0 -- -- 46
2021-02-24 14:00:00 16.8 23 Sudoeste 59 Sur 0 -- -- 54
2021-02-24 13:00:00 14.9 25 Oeste 49 Oeste 0 -- -- 61
2021-02-24 12:00:00 14.9 28 Oeste 44 Oeste 0 -- -- 63
2021-02-24 11:00:00 13.4 29 Oeste 45 Oeste 0 -- -- 68
2021-02-24 10:00:00 11.2 18 Oeste 31 Sudoeste 0 -- -- 79
2021-02-24 09:00:00 9.8 12 Oeste 29 Oeste 0 -- -- 83
2021-02-24 08:00:00 9.4 14 Sudoeste 44 Oeste 0 -- -- 83
2021-02-24 07:00:00 10.4 20 Oeste 40 Oeste 0 -- -- 77
2021-02-24 06:00:00 10.5 14 Oeste 36 Oeste 0 -- -- 77
2021-02-24 05:00:00 10.7 13 Oeste 35 Oeste 0 -- -- 77
2021-02-24 04:00:00 10.8 17 Oeste 33 Sudoeste 0 -- -- 77
2021-02-24 03:00:00 10.7 21 Oeste 43 Oeste 0 -- -- 76
2021-02-24 02:00:00 11 19 Sudoeste 40 Sudoeste 0 -- -- 76
2021-02-24 01:00:00 10.9 18 Sudoeste 31 Oeste 0 -- -- 74
2021-02-24 00:00:00 10.4 17 Sudoeste 33 Sudoeste 0 -- -- 77
2021-02-23 23:00:00 8.7 7 Sudoeste 21 Oeste 0 -- -- 83
2021-02-23 22:00:00 7 4 Norte 13 Noroeste 0 -- -- 87
2021-02-23 21:00:00 7.5 3 Nordeste 13 Sur 0 -- -- 83
2021-02-23 20:00:00 8.9 3 Este 20 Sudoeste 0 -- -- 76
2021-02-23 19:00:00 11.5 11 Sudoeste 31 Oeste 0 -- -- 64
2021-02-23 18:00:00 12.8 14 Oeste 37 Oeste 0 -- -- 58
2021-02-23 17:00:00 13.6 15 Sudoeste 44 Sudoeste 0 -- -- 58
2021-02-23 16:00:00 13.4 16 Oeste 64 Sudoeste 0 -- -- 59
2021-02-23 15:00:00 13.4 22 Sudoeste 50 Oeste 0 -- -- 61
2021-02-23 14:00:00 11.7 19 Sudoeste 42 Oeste 0 -- -- 67
2021-02-23 13:00:00 10.5 19 Oeste 45 Oeste 0 -- -- 76
2021-02-23 12:00:00 9.3 18 Oeste 44 Oeste 0 -- -- 84
2021-02-23 11:00:00 8.4 21 Oeste 40 Oeste 0 -- -- 87
2021-02-23 10:00:00 7.3 28 Oeste 42 Oeste 0 -- -- 92
2021-02-23 09:00:00 7.2 11 Sudoeste 25 Oeste 0 -- -- 95
2021-02-23 08:00:00 6.2 8 Sudoeste 18 Oeste 0 -- -- 99
2021-02-23 07:00:00 5.2 5 Oeste 10 Oeste 0 -- -- 100
2021-02-23 06:00:00 2.7 0 Calma 2 Este 0 -- -- 99
2021-02-23 05:00:00 2 0 Calma 2 Este 0 -- -- 99
2021-02-23 04:00:00 1.6 0 Calma 2 Norte 0 -- -- 98
2021-02-23 03:00:00 1.6 0 Calma 2 Sudoeste 0 -- -- 97
2021-02-23 02:00:00 2.1 0 Calma 6 Este 0 -- -- 96
2021-02-23 01:00:00 3.1 0 Calma 4 Sudeste 0 -- -- 96
2021-02-23 00:00:00 3.8 0 Calma 5 Este 0 -- -- 95
2021-02-22 23:00:00 4.9 0 Calma 6 Nordeste 0 -- -- 93
2021-02-22 22:00:00 5.8 4 Este 21 Nordeste 0 -- -- 88
2021-02-22 21:00:00 6.3 5 Nordeste 21 Nordeste 0 -- -- 87
2021-02-22 20:00:00 6.5 8 Este 22 Sudeste 0 -- -- 87
2021-02-22 19:00:00 6.6 9 Este 17 Sudeste 0 -- -- 88
2021-02-22 18:00:00 6.9 9 Nordeste 20 Nordeste 0 -- -- 86
2021-02-22 17:00:00 7.1 6 Nordeste 13 Nordeste 0.2 -- -- 89
2021-02-22 16:00:00 6.7 4 Nordeste 11 Nordeste 0.8 -- -- 90
2021-02-22 15:00:00 6.5 8 Nordeste 15 Norte 0.6 -- -- 89
2021-02-22 14:00:00 6.1 10 Sudeste 28 Este 0 -- -- 87
2021-02-22 13:00:00 4.7 12 Este 26 Este 2 -- -- 90
2021-02-22 12:00:00 3.7 2 Este 14 Nordeste 2.4 -- -- 96
2021-02-22 11:00:00 3.1 0 Calma 4 Este 0.6 -- -- 96
2021-02-22 10:00:00 2.2 0 Calma 5 Este 1.4 -- -- 96
2021-02-22 09:00:00 1.9 0 Calma 12 Sudeste 4 -- -- 95
2021-02-22 08:00:00 2.5 8 Nordeste 32 Este 3.8 -- -- 95
2021-02-22 07:00:00 3.4 19 Este 35 Sudeste 4.2 -- -- 92
2021-02-22 06:00:00 4.8 15 Este 49 Este 4 -- -- 92
2021-02-22 05:00:00 6.7 16 Este 31 Nordeste 2.4 -- -- 87
2021-02-22 04:00:00 9 23 Nordeste 35 Nordeste 0.2 -- -- 84
2021-02-22 03:00:00 9.4 4 Nordeste 12 Norte 0 -- -- 84
2021-02-22 02:00:00 8.8 0 Calma 8 Este 0 -- -- 89
2021-02-22 01:00:00 9.2 3 Nordeste 7 Sudeste 0 -- -- 87
2021-02-22 00:00:00 11 3 Noroeste 22 Nordeste 0.2 -- -- 76
2021-02-21 23:00:00 11.9 4 Nordeste 20 Oeste 0 -- -- 58
2021-02-21 22:00:00 11.8 3 Sur 17 Sudoeste 0 -- -- 60
2021-02-21 21:00:00 12.6 8 Oeste 31 Oeste 0 -- -- 55
2021-02-21 20:00:00 12.9 11 Oeste 32 Sudoeste 0 -- -- 52
2021-02-21 19:00:00 12.6 16 Oeste 32 Oeste 0 -- -- 55
2021-02-21 18:00:00 13 21 Oeste 44 Sudoeste 0 -- -- 54
2021-02-21 17:00:00 13.6 25 Oeste 55 Oeste 0 -- -- 51
2021-02-21 16:00:00 14.1 20 Oeste 53 Oeste 0 -- -- 50
2021-02-21 15:00:00 13.8 30 Oeste 56 Oeste 0 -- -- 48
2021-02-21 14:00:00 15.3 21 Oeste 58 Oeste 0 -- -- 39
2021-02-21 13:00:00 16.9 21 Oeste 72 Oeste 0 -- -- 31
2021-02-21 12:00:00 16.4 31 Sudoeste 69 Sudoeste 0 -- -- 30
2021-02-21 11:00:00 15.6 27 Sudoeste 49 Sudoeste 0 -- -- 31
2021-02-21 10:00:00 14.1 18 Oeste 39 Oeste 0 -- -- 33
2021-02-21 09:00:00 13 11 Oeste 31 Oeste 0 -- -- 35
2021-02-21 08:00:00 12.3 10 Noroeste 35 Norte 0 -- -- 37
2021-02-21 07:00:00 12.4 8 Oeste 56 Oeste 0 -- -- 37
2021-02-21 06:00:00 13.1 15 Norte 69 Sudoeste 0 -- -- 35
2021-02-21 05:00:00 13.8 29 Oeste 76 Oeste 0 -- -- 33
2021-02-21 04:00:00 14.2 36 Oeste 72 Sudoeste 0 -- -- 32
2021-02-21 03:00:00 14.7 28 Sudoeste 65 Sudoeste 0 -- -- 31
2021-02-21 02:00:00 14.6 27 Sudoeste 63 Oeste 0 -- -- 32
2021-02-21 01:00:00 14.6 24 Oeste 52 Sudoeste 0 -- -- 32
2021-02-21 00:00:00 14.3 21 Oeste 40 Oeste 0 -- -- 33
2021-02-20 23:00:00 15 20 Oeste 55 Sudoeste 0 -- -- 31
2021-02-20 22:00:00 15.4 18 Oeste 51 Oeste 0 -- -- 32
2021-02-20 21:00:00 15.6 24 Sudoeste 53 Sudoeste 0 -- -- 32
2021-02-20 20:00:00 15.9 13 Noroeste 45 Oeste 0 -- -- 34
2021-02-20 19:00:00 16.8 16 Oeste 43 Oeste 0 -- -- 31
2021-02-20 18:00:00 18.2 22 Oeste 64 Oeste 0 -- -- 28
2021-02-20 17:00:00 19.6 23 Oeste 60 Sudoeste 0 -- -- 25
2021-02-20 16:00:00 19.5 28 Sudoeste 55 Sudoeste 0 -- -- 27
2021-02-20 15:00:00 19.5 28 Sudoeste 71 Sudoeste 0 -- -- 28
2021-02-20 14:00:00 19.5 25 Sudoeste 67 Oeste 0 -- -- 27
2021-02-20 13:00:00 18.5 26 Sudoeste 68 Sudoeste 0 -- -- 31
2021-02-20 12:00:00 17.3 18 Oeste 67 Oeste 0 -- -- 35
2021-02-20 11:00:00 16.3 15 Oeste 38 Oeste 0 -- -- 34
2021-02-20 10:00:00 14.7 12 Oeste 36 Sudoeste 0 -- -- 40
2021-02-20 09:00:00 14.3 16 Oeste 44 Sudoeste 0 -- -- 39
2021-02-20 08:00:00 14.2 20 Sudoeste 39 Oeste 0 -- -- 37
2021-02-20 07:00:00 14.3 24 Sudoeste 59 Sudoeste 0 -- -- 36
2021-02-20 06:00:00 14 31 Sudoeste 60 Sudoeste 0 -- -- 38
2021-02-20 05:00:00 14.1 34 Sudoeste 64 Oeste 0 -- -- 38
2021-02-20 04:00:00 14.3 36 Oeste 81 Sudoeste 0 -- -- 38
2021-02-20 03:00:00 14.6 37 Sudoeste 70 Oeste 0 -- -- 37
2021-02-20 02:00:00 14.6 39 Oeste 60 Oeste 0 -- -- 37
2021-02-20 01:00:00 14.5 29 Sudoeste 54 Sudoeste 0 -- -- 38
2021-02-20 00:00:00 14.2 23 Oeste 48 Sudoeste 0 -- -- 40
2021-02-19 23:00:00 13.9 21 Oeste 56 Oeste 0 -- -- 42
2021-02-19 22:00:00 14 30 Oeste 56 Oeste 0 -- -- 44
2021-02-19 21:00:00 13.9 22 Oeste 42 Oeste 0 -- -- 45
2021-02-19 20:00:00 13.5 8 Noroeste 18 Sudoeste 0 -- -- 47
2021-02-19 19:00:00 14 8 Oeste 35 Sudoeste 0 -- -- 47
2021-02-19 18:00:00 15.2 24 Oeste 48 Oeste 0 -- -- 42
2021-02-19 17:00:00 16.6 26 Sudoeste 49 Sudoeste 0 -- -- 38
2021-02-19 16:00:00 16.7 15 Sudoeste 51 Sudoeste 0 -- -- 38
2021-02-19 15:00:00 16.9 20 Sudoeste 53 Sudoeste 0 -- -- 37
2021-02-19 14:00:00 15.9 19 Sudoeste 60 Sudoeste 0 -- -- 40
2021-02-19 13:00:00 15.1 36 Sudoeste 62 Sudoeste 0 -- -- 44
2021-02-19 12:00:00 14.6 31 Sudoeste 66 Sudoeste 0 -- -- 43
2021-02-19 11:00:00 13.8 35 Sudoeste 53 Sudoeste 0 -- -- 45
2021-02-19 10:00:00 12.3 19 Sudoeste 46 Sudoeste 0 -- -- 47
2021-02-19 09:00:00 11.6 24 Sudoeste 41 Sudoeste 0 -- -- 49
2021-02-19 08:00:00 11.1 14 Oeste 37 Sudoeste 0 -- -- 51
2021-02-19 07:00:00 11.4 22 Oeste 41 Oeste 0 -- -- 50
2021-02-19 06:00:00 11.5 25 Sudoeste 42 Sudoeste 0 -- -- 51
2021-02-19 05:00:00 11.5 24 Sudoeste 45 Sudoeste 0 -- -- 51
2021-02-19 04:00:00 10.9 10 Sudoeste 38 Sudoeste 0 -- -- 55
2021-02-19 03:00:00 11.6 24 Sudoeste 40 Sudoeste 0 -- -- 52
2021-02-19 02:00:00 11.5 15 Sudoeste 36 Sudoeste 0 -- -- 52
2021-02-19 01:00:00 11.1 12 Sudoeste 30 Oeste 0 -- -- 53
2021-02-19 00:00:00 11.4 13 Sudoeste 31 Sudoeste 0 -- -- 54
2021-02-18 23:00:00 6.7 4 Noroeste 12 Sur 0 -- -- 84
2021-02-18 22:00:00 7 3 Este 4 Nordeste 0 -- -- 81
2021-02-18 21:00:00 8.6 3 Este 6 Este 0 -- -- 75
2021-02-18 20:00:00 10.8 2 Nordeste 8 Noroeste 0 -- -- 65
2021-02-18 19:00:00 13.7 5 Noroeste 19 Sudoeste 0 -- -- 51
2021-02-18 18:00:00 14.9 10 Sudoeste 31 Oeste 0 -- -- 45
2021-02-18 17:00:00 15.7 10 Sudoeste 32 Oeste 0 -- -- 43
2021-02-18 16:00:00 16.3 18 Oeste 31 Oeste 0 -- -- 45
2021-02-18 15:00:00 15 11 Oeste 33 Oeste 0 -- -- 48
2021-02-18 14:00:00 14.7 19 Oeste 39 Oeste 0 -- -- 45
2021-02-18 13:00:00 14.4 10 Sudoeste 30 Oeste 0 -- -- 46
2021-02-18 12:00:00 13.9 18 Sudoeste 46 Sudoeste 0 -- -- 45
2021-02-18 11:00:00 13.3 13 Sudoeste 36 Sudoeste 0 -- -- 47
2021-02-18 10:00:00 13 19 Sudoeste 42 Sudoeste 0 -- -- 47
2021-02-18 09:00:00 12.6 28 Sudoeste 54 Oeste 0 -- -- 49
2021-02-18 08:00:00 12.3 22 Sudoeste 39 Sudoeste 0 -- -- 50
2021-02-18 07:00:00 12.7 24 Sudoeste 45 Sudoeste 0 -- -- 50
2021-02-18 06:00:00 12.7 25 Sudoeste 39 Sudoeste 0 -- -- 52
2021-02-18 05:00:00 12.4 10 Oeste 30 Oeste 0 -- -- 55
2021-02-18 04:00:00 12.2 16 Oeste 29 Oeste 0 -- -- 58
2021-02-18 03:00:00 12.1 8 Oeste 30 Sudoeste 0 -- -- 58
2021-02-18 02:00:00 12.8 20 Sudoeste 31 Oeste 0 -- -- 57
2021-02-18 01:00:00 13.1 24 Sudoeste 47 Sudoeste 0 -- -- 58
2021-02-18 00:00:00 12.3 15 Oeste 27 Oeste 0 -- -- 62
2021-02-17 23:00:00 12.3 13 Oeste 31 Oeste 0 -- -- 65
2021-02-17 22:00:00 11.7 14 Oeste 21 Sudoeste 0 -- -- 68
2021-02-17 21:00:00 11 4 Noroeste 10 Noroeste 0 -- -- 74
2021-02-17 20:00:00 12.6 3 Noroeste 31 Oeste 0 -- -- 66
2021-02-17 19:00:00 12.8 13 Oeste 29 Oeste 0 -- -- 66
2021-02-17 18:00:00 12.9 7 Noroeste 15 Oeste 0 -- -- 68
2021-02-17 17:00:00 13.3 12 Oeste 32 Sudoeste 0 -- -- 67
2021-02-17 16:00:00 14 13 Sudoeste 31 Sudoeste 0 -- -- 65
2021-02-17 15:00:00 14.8 18 Oeste 40 Oeste 0 -- -- 62
2021-02-17 14:00:00 14.9 16 Oeste 34 Sudoeste 0 -- -- 59
2021-02-17 13:00:00 13.5 11 Oeste 28 Oeste 0 -- -- 66
2021-02-17 12:00:00 12.3 14 Oeste 30 Oeste 0 -- -- 73
2021-02-17 11:00:00 8.1 2 Sudeste 5 Sur 0 -- -- 99
2021-02-17 10:00:00 5.1 0 Calma 6 Este 0 -- -- 99
2021-02-17 09:00:00 3.7 2 Norte 4 Oeste 0 -- -- 99
2021-02-17 08:00:00 3.3 3 Este 4 Este 0 -- -- 98
2021-02-17 07:00:00 3.9 4 Este 8 Este 0 -- -- 99
2021-02-17 06:00:00 2.9 2 Este 4 Este 0 -- -- 98
2021-02-17 05:00:00 3.2 2 Nordeste 5 Este 0 -- -- 98
2021-02-17 04:00:00 3.6 2 Este 4 Este 0 -- -- 97
2021-02-17 03:00:00 4.3 2 Nordeste 5 Este 0 -- -- 97
2021-02-17 02:00:00 5.3 0 Calma 5 Norte 0 -- -- 96
2021-02-17 01:00:00 6.3 2 Este 4 Norte 0 -- -- 94
2021-02-17 00:00:00 7.1 0 Calma 4 Sudeste 0 -- -- 93
2021-02-16 23:00:00 7.3 0 Calma 6 Sudeste 0 -- -- 92
2021-02-16 22:00:00 7.7 2 Nordeste 6 Norte 0 -- -- 90
2021-02-16 21:00:00 8.2 2 Este 10 Sudeste 0 -- -- 88
2021-02-16 20:00:00 9.5 0 Calma 6 Este 0 -- -- 85
2021-02-16 19:00:00 10.6 0 Calma 6 Oeste 0 -- -- 80
2021-02-16 18:00:00 12.3 0 Calma 14 Oeste 0 -- -- 67
2021-02-16 17:00:00 13 11 Oeste 27 Oeste 0 -- -- 63
2021-02-16 16:00:00 13 18 Oeste 26 Oeste 0 -- -- 62
2021-02-16 15:00:00 13.2 14 Oeste 30 Oeste 0 -- -- 64
2021-02-16 14:00:00 12 17 Oeste 31 Oeste 0 -- -- 64
2021-02-16 13:00:00 12 13 Oeste 33 Oeste 0 -- -- 62
2021-02-16 12:00:00 11.5 26 Oeste 47 Oeste 0 -- -- 63
2021-02-16 11:00:00 10.4 26 Oeste 42 Oeste 0 -- -- 66
2021-02-16 10:00:00 8.4 14 Oeste 37 Oeste 0 -- -- 77
2021-02-16 09:00:00 5.1 6 Sudoeste 13 Oeste 0 -- -- 92
2021-02-16 08:00:00 4.2 2 Nordeste 10 Norte 0 -- -- 93
2021-02-16 07:00:00 4.7 3 Este 11 Noroeste 0 -- -- 97
2021-02-16 06:00:00 3.2 3 Sudeste 9 Este 0 -- -- 99
2021-02-16 05:00:00 1.6 3 Este 6 Nordeste 0 -- -- 98
2021-02-16 04:00:00 1.6 0 Calma 8 Este 0 -- -- 98
2021-02-16 03:00:00 2 3 Este 7 Este 0 -- -- 99
2021-02-16 02:00:00 2.2 2 Nordeste 7 Oeste 0 -- -- 98
2021-02-16 01:00:00 2.4 0 Calma 5 Norte 0 -- -- 97
2021-02-16 00:00:00 2.9 2 Este 6 Norte 0 -- -- 96
2021-02-15 23:00:00 3.7 2 Este 5 Norte 0 -- -- 95
2021-02-15 22:00:00 4.1 0 Calma 7 Norte 0 -- -- 94
2021-02-15 21:00:00 5.1 2 Este 4 Este 0 -- -- 93
2021-02-15 20:00:00 6.1 2 Nordeste 4 Noroeste 0 -- -- 90
2021-02-15 19:00:00 8.2 0 Calma 5 Sudeste 0 -- -- 81
2021-02-15 18:00:00 10.3 3 Oeste 14 Oeste 0 -- -- 74
2021-02-15 17:00:00 11.2 7 Oeste 28 Oeste 0 -- -- 71
2021-02-15 16:00:00 12.6 18 Oeste 35 Oeste 0 -- -- 67
2021-02-15 15:00:00 13.1 25 Oeste 34 Oeste 0 -- -- 66
2021-02-15 14:00:00 13.2 17 Oeste 32 Sudoeste 0 -- -- 66
2021-02-15 13:00:00 11.3 19 Oeste 30 Oeste 0 -- -- 70
2021-02-15 12:00:00 10.4 9 Sudoeste 17 Sudoeste 0 -- -- 73
2021-02-15 11:00:00 8.2 4 Sur 11 Sudoeste 0 -- -- 80
2021-02-15 10:00:00 6.8 5 Sudoeste 9 Sudoeste 0 -- -- 90
2021-02-15 09:00:00 4.8 0 Calma 4 Nordeste 0 -- -- 97
2021-02-15 08:00:00 3.9 0 Calma 4 Nordeste 0 -- -- 98
2021-02-15 07:00:00 3.4 0 Calma 6 Norte 0 -- -- 98
2021-02-15 06:00:00 2.6 0 Calma 5 Noroeste 0 -- -- 98
2021-02-15 05:00:00 2 2 Este 4 Nordeste 0 -- -- 96
2021-02-15 04:00:00 2.8 0 Calma 6 Este 0 -- -- 95
2021-02-15 03:00:00 4 5 Este 8 Este 0 -- -- 92
2021-02-15 02:00:00 5.8 3 Oeste 12 Oeste 0 -- -- 85
2021-02-15 01:00:00 6.9 9 Oeste 18 Sudoeste 0 -- -- 83
2021-02-15 00:00:00 7.7 7 Sudoeste 19 Oeste 0 -- -- 78
2021-02-14 23:00:00 8.1 10 Oeste 18 Oeste 0 -- -- 76
2021-02-14 22:00:00 8.2 9 Oeste 19 Sudoeste 0 -- -- 76
2021-02-14 21:00:00 7 7 Oeste 17 Oeste 0 -- -- 84
2021-02-14 20:00:00 8.1 4 Oeste 15 Sudoeste 0 -- -- 77
2021-02-14 19:00:00 9.3 8 Sudoeste 18 Oeste 0 -- -- 74
2021-02-14 18:00:00 10.8 9 Sudoeste 34 Oeste 0 -- -- 69
2021-02-14 17:00:00 11.9 17 Oeste 38 Oeste 0 -- -- 66
2021-02-14 16:00:00 13.5 24 Oeste 39 Oeste 0 -- -- 60
2021-02-14 15:00:00 13.3 17 Sudoeste 40 Sudoeste 0 -- -- 59
2021-02-14 14:00:00 13.4 18 Sudoeste 42 Oeste 0 -- -- 56
2021-02-14 13:00:00 13 13 Oeste 30 Sudoeste 0 -- -- 58
2021-02-14 12:00:00 8.6 4 Sur 9 Sudeste 0 -- -- 82
2021-02-14 11:00:00 3.7 2 Sudeste 6 Este 0 -- -- 100
2021-02-14 10:00:00 0.5 0 Calma 4 Norte 0 -- -- 100
2021-02-14 09:00:00 0.1 3 Nordeste 7 Nordeste 0 -- -- 99
2021-02-14 08:00:00 0.3 4 Norte 9 Norte 0 -- -- 99
2021-02-14 07:00:00 0.6 5 Norte 8 Norte 0 -- -- 99
2021-02-14 06:00:00 1.2 4 Norte 8 Nordeste 0 -- -- 99
2021-02-14 05:00:00 1.2 0 Calma 9 Oeste 0 -- -- 99
2021-02-14 04:00:00 1.2 5 Sudoeste 12 Norte 0 -- -- 98
2021-02-14 03:00:00 0.9 0 Calma 3 Sudeste 0 -- -- 98
2021-02-14 02:00:00 1.3 0 Calma 3 Noroeste 0 -- -- 98
2021-02-14 01:00:00 1.7 0 Calma 4 Noroeste 0 -- -- 98
2021-02-14 00:00:00 2.1 0 Calma 4 Oeste 0 -- -- 97
2021-02-13 23:00:00 2.8 0 Calma 4 Nordeste 0 -- -- 96
2021-02-13 22:00:00 3.1 0 Calma 7 Este 0 -- -- 95
2021-02-13 21:00:00 4.2 2 Este 6 Nordeste 0 -- -- 94
2021-02-13 20:00:00 5.8 2 Este 8 Este 0 -- -- 91
2021-02-13 19:00:00 7.9 5 Norte 14 Norte 0 -- -- 78
2021-02-13 18:00:00 9.5 5 Norte 23 Nordeste 0 -- -- 70
2021-02-13 17:00:00 10.5 10 Nordeste 21 Nordeste 0 -- -- 67
2021-02-13 16:00:00 10.9 5 Nordeste 18 Norte 0 -- -- 64
2021-02-13 15:00:00 10.9 10 Nordeste 21 Nordeste 0 -- -- 67
2021-02-13 14:00:00 11.3 10 Nordeste 34 Nordeste 0 -- -- 66
2021-02-13 13:00:00 12.2 4 Sudeste 17 Nordeste 0 -- -- 69
2021-02-13 08:00:00 -- -- -- -- -- -- -- -- --
2021-02-13 07:00:00 6.4 0 Calma 9 Oeste 0 -- -- 95
2021-02-13 06:00:00 6.9 4 Norte 20 Sudeste 0 -- -- 91
2021-02-13 05:00:00 7.3 5 Este 18 Nordeste 0 -- -- 89
2021-02-13 04:00:00 7.3 8 Este 14 Este 0 -- -- 92
2021-02-13 03:00:00 7.4 2 Este 10 Este 0.2 -- -- 94
2021-02-13 02:00:00 8 0 Calma 24 Este 0 -- -- 88
2021-02-13 01:00:00 8 12 Este 24 Este 0.2 -- -- 91
2021-02-13 00:00:00 7.9 6 Este 13 Este 1.2 -- -- 95
2021-02-12 23:00:00 8.4 8 Norte 22 Este 0.6 -- -- 90
2021-02-12 22:00:00 8.5 8 Nordeste 21 Nordeste 0.6 -- -- 90
2021-02-12 21:00:00 8.6 8 Nordeste 25 Norte 0.2 -- -- 89
2021-02-12 20:00:00 8.6 10 Nordeste 26 Nordeste 1.2 -- -- 89
2021-02-12 19:00:00 8.2 4 Nordeste 33 Este 1.4 -- -- 92
2021-02-12 18:00:00 8.3 13 Este 30 Nordeste 1.4 -- -- 92
2021-02-12 17:00:00 9.4 2 Este 21 Nordeste 0.4 -- -- 90
2021-02-12 16:00:00 10.2 9 Nordeste 20 Oeste 0.8 -- -- 89
2021-02-12 15:00:00 10.4 10 Noroeste 26 Noroeste 0 -- -- 84
2021-02-12 14:00:00 10 8 Oeste 20 Oeste 0.8 -- -- 90
2021-02-12 13:00:00 9.9 4 Sudoeste 9 Sudoeste 1.2 -- -- 94
2021-02-12 12:00:00 9.8 5 Sur 14 Sudoeste 0.2 -- -- 94
2021-02-12 11:00:00 9.5 3 Sur 14 Sudoeste 2.2 -- -- 95
2021-02-12 10:00:00 9.4 2 Noroeste 17 Oeste 2.2 -- -- 96
2021-02-12 09:00:00 9.5 9 Oeste 17 Sudoeste 1.4 -- -- 95
2021-02-12 08:00:00 9.5 9 Oeste 24 Oeste 2.6 -- -- 94
2021-02-12 07:00:00 10.5 13 Oeste 33 Oeste 1 -- -- 88
2021-02-12 06:00:00 11.4 19 Oeste 31 Oeste 0 -- -- 79
2021-02-12 05:00:00 11.7 23 Sudoeste 43 Sudoeste 0 -- -- 79
2021-02-12 04:00:00 5.9 2 Nordeste 6 Norte 0 -- -- 100
2021-02-12 03:00:00 5.9 0 Calma 5 Sudoeste 0 -- -- 99
2021-02-12 02:00:00 5.4 0 Calma 6 Este 0 -- -- 99
2021-02-12 01:00:00 5.4 0 Calma 4 Este 0 -- -- 99
2021-02-12 00:00:00 5.6 0 Calma 9 Noroeste 0 -- -- 99
2021-02-11 23:00:00 6.1 0 Calma 8 Sudeste 0 -- -- 98
2021-02-11 22:00:00 6.6 2 Sudeste 7 Sudeste 0 -- -- 98
2021-02-11 21:00:00 6.7 2 Nordeste 6 Este 0 -- -- 97
2021-02-11 20:00:00 7.7 0 Calma 5 Este 0 -- -- 95
2021-02-11 19:00:00 9.6 0 Calma 4 Noroeste 0 -- -- 91
2021-02-11 18:00:00 11.3 0 Calma 7 Sudoeste 0 -- -- 85
2021-02-11 17:00:00 13.1 3 Oeste 13 Oeste 0 -- -- 76
2021-02-11 16:00:00 13 9 Oeste 16 Oeste 0 -- -- 74
2021-02-11 15:00:00 12.4 5 Oeste 11 Noroeste 0 -- -- 77
2021-02-11 14:00:00 9.8 0 Calma 5 Noroeste 0 -- -- 86
2021-02-11 13:00:00 8.1 0 Calma 5 Oeste 0 -- -- 91
2021-02-11 12:00:00 6.2 0 Calma 6 Sudoeste 0 -- -- 100
2021-02-11 11:00:00 3.2 0 Calma 4 Sudeste 0 -- -- 100
2021-02-11 10:00:00 1.5 0 Calma 6 Sudeste 0 -- -- 100
2021-02-11 09:00:00 0.3 4 Nordeste 9 Este 0 -- -- 100
2021-02-11 08:00:00 0.4 3 Nordeste 10 Nordeste 0 -- -- 100
2021-02-11 07:00:00 0.5 4 Norte 9 Nordeste 0 -- -- 99
2021-02-11 06:00:00 1 4 Nordeste 9 Nordeste 0 -- -- 99
2021-02-11 05:00:00 1.6 5 Nordeste 9 Nordeste 0 -- -- 99
2021-02-11 04:00:00 2.1 5 Nordeste 8 Nordeste 0 -- -- 99
2021-02-11 03:00:00 2.5 3 Norte 6 Norte 0 -- -- 99
2021-02-11 02:00:00 2.8 3 Norte 8 Norte 0 -- -- 98
2021-02-11 01:00:00 3 2 Norte 5 Norte 0 -- -- 98
2021-02-11 00:00:00 2.9 0 Calma 6 Norte 0 -- -- 98
2021-02-10 23:00:00 3.2 0 Calma 4 Nordeste 0 -- -- 97
2021-02-10 22:00:00 3.9 0 Calma 5 Oeste 0 -- -- 96
2021-02-10 21:00:00 4.6 2 Noroeste 5 Noroeste 0 -- -- 96
2021-02-10 20:00:00 5.1 0 Calma 7 Nordeste 0 -- -- 96
2021-02-10 19:00:00 5.6 2 Este 12 Este 0 -- -- 94
2021-02-10 18:00:00 6.3 3 Sur 16 Noroeste 0.2 -- -- 89
2021-02-10 17:00:00 6.4 11 Sudoeste 18 Sudoeste 0 -- -- 89
2021-02-10 16:00:00 6.5 3 Sudeste 13 Sur 0.4 -- -- 89
2021-02-10 15:00:00 6.2 9 Sur 24 Sudoeste 0.2 -- -- 89
2021-02-10 14:00:00 6.5 3 Sudeste 12 Sur 0 -- -- 89
2021-02-10 13:00:00 5.6 8 Sudeste 13 Sudeste 0.4 -- -- 94
2021-02-10 12:00:00 4.7 0 Calma 4 Oeste 0 -- -- 94
2021-02-10 11:00:00 3.2 0 Calma 3 Sur 0.2 -- -- 96
2021-02-10 10:00:00 2.1 0 Calma 3 Nordeste 0.2 -- -- 96
2021-02-10 09:00:00 1.7 0 Calma 4 Sudoeste 1.4 -- -- 94
2021-02-10 08:00:00 2.4 4 Sudoeste 15 Oeste 2.8 -- -- 92
2021-02-10 07:00:00 4 2 Sudeste 7 Sur 2 -- -- 93
2021-02-10 06:00:00 4.7 0 Calma 5 Oeste 0.4 -- -- 92
2021-02-10 05:00:00 5 2 Sudoeste 13 Noroeste 0 -- -- 88
2021-02-10 04:00:00 5.6 6 Oeste 30 Sudoeste 0 -- -- 82
2021-02-10 03:00:00 5.8 17 Sudoeste 38 Sudoeste 0 -- -- 80
2021-02-10 02:00:00 5.8 16 Sudoeste 45 Sudoeste 0.2 -- -- 82
2021-02-10 01:00:00 5.7 18 Sudoeste 36 Oeste 0.4 -- -- 85
2021-02-10 00:00:00 6 13 Oeste 34 Sudoeste 0.4 -- -- 85
2021-02-09 23:00:00 5.8 19 Oeste 28 Sudoeste 0 -- -- 94
2021-02-09 22:00:00 4.1 3 Noroeste 8 Oeste 0 -- -- 94
2021-02-09 21:00:00 4.9 2 Oeste 18 Sudoeste 0 -- -- 90
2021-02-09 20:00:00 6.6 9 Sudoeste 21 Sudoeste 0 -- -- 84
2021-02-09 19:00:00 7.2 13 Oeste 51 Sudoeste 0 -- -- 82
2021-02-09 18:00:00 7.6 23 Sudoeste 50 Oeste 0.2 -- -- 81
2021-02-09 17:00:00 7.2 22 Sudoeste 47 Sudoeste 1.4 -- -- 88
2021-02-09 16:00:00 7.6 17 Oeste 49 Oeste 0 -- -- 83
2021-02-09 15:00:00 7.4 24 Oeste 63 Oeste 0.4 -- -- 83
2021-02-09 14:00:00 7.3 30 Sudoeste 58 Sudoeste 0 -- -- 83
2021-02-09 13:00:00 8.3 19 Sudoeste 54 Sudoeste 0 -- -- 76
2021-02-09 12:00:00 7.7 30 Sudoeste 57 Sudoeste 0.2 -- -- 77
2021-02-09 11:00:00 6.6 16 Oeste 41 Sudoeste 0.2 -- -- 81
2021-02-09 10:00:00 6.2 28 Sudoeste 48 Sudoeste 0 -- -- 84
2021-02-09 09:00:00 6.5 26 Sudoeste 64 Sudoeste 0.2 -- -- 83
2021-02-09 08:00:00 6.2 26 Sudoeste 46 Sudoeste 0 -- -- 87
2021-02-09 07:00:00 5.7 19 Sudoeste 37 Sudoeste 0.2 -- -- 99
2021-02-09 06:00:00 4.2 5 Noroeste 11 Noroeste 0 -- -- 100
2021-02-09 05:00:00 3.6 0 Calma 5 Norte 0 -- -- 99
2021-02-09 04:00:00 3.6 0 Calma 5 Norte 0 -- -- 99
2021-02-09 03:00:00 3.7 2 Este 5 Norte 0 -- -- 99
2021-02-09 02:00:00 3.5 3 Norte 7 Noroeste 0 -- -- 99
2021-02-09 01:00:00 3.7 0 Calma 4 Norte 0 -- -- 99
2021-02-09 00:00:00 3.6 0 Calma 5 Noroeste 0 -- -- 98
2021-02-08 23:00:00 3.5 0 Calma 4 Este 0.2 -- -- 98
2021-02-08 22:00:00 3.5 0 Calma 7 Este 0 -- -- 97
2021-02-08 21:00:00 3.7 0 Calma 7 Sudeste 0.4 -- -- 97
2021-02-08 20:00:00 3.8 3 Sudeste 5 Nordeste 0 -- -- 96
2021-02-08 19:00:00 4.5 0 Calma 9 Oeste 0.4 -- -- 92
2021-02-08 18:00:00 6.4 10 Nordeste 40 Noroeste 1.4 -- -- 89
2021-02-08 17:00:00 8.3 4 Este 8 Oeste 0 -- -- 86
2021-02-08 16:00:00 8.5 5 Sudoeste 13 Sudoeste 0 -- -- 84
2021-02-08 15:00:00 6.9 9 Sudoeste 15 Sudoeste 0 -- -- 91
2021-02-08 14:00:00 6.4 2 Sudeste 11 Noroeste 0.2 -- -- 96
2021-02-08 13:00:00 6 2 Sur 4 Sur 0.4 -- -- 98
2021-02-08 12:00:00 5.7 0 Calma 5 Sur 0.2 -- -- 99
2021-02-08 11:00:00 5.1 3 Este 5 Este 0.6 -- -- 99
2021-02-08 10:00:00 4.7 0 Calma 4 Sur 0.4 -- -- 99
2021-02-08 09:00:00 4.4 2 Sudeste 5 Este 0 -- -- 98
2021-02-08 08:00:00 4.2 2 Nordeste 8 Nordeste 0 -- -- 98
2021-02-08 07:00:00 4.2 0 Calma 3 Este 0.2 -- -- 97
2021-02-08 06:00:00 4.2 0 Calma 9 Sudoeste 1 -- -- 97
2021-02-08 05:00:00 4.2 7 Noroeste 14 Oeste 1 -- -- 97
2021-02-08 04:00:00 4 4 Sudoeste 8 Sudoeste 0.6 -- -- 97
2021-02-08 03:00:00 4 4 Oeste 6 Oeste 0.2 -- -- 97
2021-02-08 02:00:00 3.9 4 Este 7 Este 0 -- -- 96
2021-02-08 01:00:00 3.8 2 Este 7 Norte 0.2 -- -- 95
2021-02-08 00:00:00 4 3 Norte 15 Sur 1.2 -- -- 91
2021-02-07 23:00:00 4.2 6 Oeste 18 Sudoeste 1 -- -- 91
2021-02-07 22:00:00 4.4 6 Sudoeste 21 Sudoeste 0 -- -- 87
2021-02-07 21:00:00 4.8 10 Sudoeste 24 Sudoeste 0.2 -- -- 84
2021-02-07 20:00:00 4.8 3 Noroeste 9 Oeste 0 -- -- 90
2021-02-07 19:00:00 5.3 5 Oeste 10 Oeste 0 -- -- 84
2021-02-07 18:00:00 6 4 Sudoeste 10 Sur 0 -- -- 77
2021-02-07 17:00:00 6.4 3 Sudeste 10 Noroeste 0 -- -- 74
2021-02-07 16:00:00 6.4 6 Oeste 16 Oeste 0 -- -- 78
2021-02-07 15:00:00 6.4 4 Oeste 13 Noroeste 0 -- -- 80
2021-02-07 14:00:00 5.6 2 Sudeste 10 Oeste 0 -- -- 85
2021-02-07 13:00:00 5 7 Nordeste 12 Nordeste 0 -- -- 88
2021-02-07 12:00:00 4.7 7 Nordeste 12 Nordeste 0.2 -- -- 89
2021-02-07 11:00:00 4.5 8 Nordeste 21 Nordeste 0 -- -- 88
2021-02-07 10:00:00 3.5 8 Este 15 Nordeste 0 -- -- 91
2021-02-07 09:00:00 2.7 6 Nordeste 10 Este 0.2 -- -- 94
2021-02-07 08:00:00 2.3 2 Nordeste 9 Nordeste 0 -- -- 93
2021-02-07 07:00:00 2.5 5 Nordeste 13 Este 0.2 -- -- 94
2021-02-07 06:00:00 2.3 0 Calma 6 Nordeste 0 -- -- 92
2021-02-07 05:00:00 2.6 2 Nordeste 12 Sudeste 0.6 -- -- 93
2021-02-07 04:00:00 2.9 9 Este 17 Sudeste 0.2 -- -- 88
2021-02-07 03:00:00 3 10 Este 18 Este 0 -- -- 88
2021-02-07 02:00:00 3.1 5 Nordeste 28 Este 0.2 -- -- 88
2021-02-07 01:00:00 3.4 6 Este 27 Norte 0 -- -- 86
2021-02-07 00:00:00 3.4 6 Este 22 Nordeste 0.4 -- -- 90
2021-02-06 23:00:00 3.9 11 Este 21 Este 0.2 -- -- 88
2021-02-06 22:00:00 4.5 10 Este 27 Sudeste 0.2 -- -- 84
2021-02-06 21:00:00 4.7 3 Este 24 Este 0.2 -- -- 88
2021-02-06 20:00:00 4.9 9 Nordeste 22 Este 0.4 -- -- 89
2021-02-06 19:00:00 5.8 0 Calma 14 Nordeste 0.6 -- -- 92
2021-02-06 18:00:00 6.4 8 Nordeste 21 Este 0.4 -- -- 88
2021-02-06 17:00:00 7.2 3 Este 20 Norte 1 -- -- 89
2021-02-06 16:00:00 7.5 3 Sur 18 Oeste 3 -- -- 94
2021-02-06 15:00:00 7.9 10 Oeste 25 Sudoeste 2 -- -- 92
2021-02-06 14:00:00 8.1 13 Sudoeste 29 Sudoeste 2.2 -- -- 90
2021-02-06 13:00:00 7.9 12 Sudoeste 24 Sudoeste 1.2 -- -- 98
2021-02-06 12:00:00 7.3 2 Nordeste 5 Norte 1.4 -- -- 100
2021-02-06 11:00:00 6.6 0 Calma 3 Sudeste 2.8 -- -- 100
2021-02-06 10:00:00 6.3 0 Calma 3 Norte 1.6 -- -- 99
2021-02-06 09:00:00 6 0 Calma 6 Este 0.8 -- -- 99
2021-02-06 08:00:00 5.8 3 Sudeste 5 Este 1 -- -- 100
2021-02-06 07:00:00 5.3 0 Calma 5 Norte 0 -- -- 99
2021-02-06 06:00:00 4.9 2 Este 7 Este 0 -- -- 99
2021-02-06 05:00:00 4.6 0 Calma 4 Sudeste 0 -- -- 99
2021-02-06 04:00:00 4.6 0 Calma 4 Sudeste 0 -- -- 99
2021-02-06 03:00:00 4.3 2 Nordeste 6 Este 0 -- -- 98
2021-02-06 02:00:00 4.3 0 Calma 4 Este 0 -- -- 99
2021-02-06 01:00:00 4.4 0 Calma 3 Este 0 -- -- 97
2021-02-06 00:00:00 4.9 0 Calma 6 Este 0 -- -- 98
2021-02-05 23:00:00 5.7 0 Calma 4 Norte 0 -- -- 96
2021-02-05 22:00:00 6.6 0 Calma 3 Este 0 -- -- 95
2021-02-05 21:00:00 7.2 0 Calma 3 Este 0 -- -- 94
2021-02-05 20:00:00 8.6 0 Calma 3 Sudoeste 0 -- -- 89
2021-02-05 19:00:00 10.7 2 Sudoeste 12 Oeste 0 -- -- 84
2021-02-05 18:00:00 13 9 Sudoeste 12 Sudoeste 0 -- -- 74
2021-02-05 17:00:00 15.3 4 Oeste 13 Sudoeste 0 -- -- 62
2021-02-05 16:00:00 14.8 10 Sudoeste 18 Oeste 0 -- -- 62
2021-02-05 15:00:00 15.1 12 Sudoeste 19 Oeste 0 -- -- 62
2021-02-05 14:00:00 14 5 Sudoeste 15 Oeste 0 -- -- 69
2021-02-05 13:00:00 12 3 Oeste 6 Sudoeste 0 -- -- 78
2021-02-05 12:00:00 10.7 0 Calma 4 Sudeste 0 -- -- 85
2021-02-05 11:00:00 8 0 Calma 4 Norte 0 -- -- 98
2021-02-05 10:00:00 6.6 0 Calma 5 Este 0 -- -- 99
2021-02-05 09:00:00 5.7 0 Calma 4 Este 0 -- -- 98
2021-02-05 08:00:00 6.2 0 Calma 4 Este 0 -- -- 97
2021-02-05 07:00:00 6.9 0 Calma 5 Sudeste 0 -- -- 96
2021-02-05 06:00:00 7 0 Calma 6 Este 0 -- -- 96
2021-02-05 05:00:00 7 8 Este 11 Este 0 -- -- 95
2021-02-05 04:00:00 7.3 2 Nordeste 13 Este 0 -- -- 92
2021-02-05 03:00:00 7.8 4 Este 7 Este 0 -- -- 87
2021-02-05 02:00:00 10.5 3 Sudeste 19 Sudoeste 0 -- -- 74
2021-02-05 01:00:00 10.8 6 Oeste 24 Sudoeste 0 -- -- 73
2021-02-05 00:00:00 12 14 Sudoeste 33 Sudoeste 0 -- -- 68
2021-02-04 23:00:00 8.8 3 Nordeste 8 Norte 0 -- -- 88
2021-02-04 22:00:00 8.7 3 Nordeste 7 Norte 0 -- -- 94
2021-02-04 21:00:00 8.4 0 Calma 6 Este 0 -- -- 94
2021-02-04 20:00:00 9.2 0 Calma 4 Oeste 0 -- -- 90
2021-02-04 19:00:00 10.7 0 Calma 5 Este 0 -- -- 86
2021-02-04 18:00:00 13.7 0 Calma 11 Oeste 0 -- -- 73
2021-02-04 17:00:00 15.4 7 Oeste 17 Oeste 0 -- -- 63
2021-02-04 16:00:00 14.7 0 Calma 6 Este 0 -- -- 69
2021-02-04 15:00:00 14.3 3 Sudeste 6 Sudeste 0 -- -- 69
2021-02-04 14:00:00 13.9 0 Calma 18 Oeste 0 -- -- 69
2021-02-04 13:00:00 13.4 10 Sudoeste 40 Oeste 0 -- -- 68
2021-02-04 12:00:00 13 21 Oeste 36 Sudoeste 0 -- -- 70
2021-02-04 11:00:00 11.8 11 Oeste 32 Sudoeste 0 -- -- 77
2021-02-04 10:00:00 11.7 11 Sudoeste 28 Sudoeste 0 -- -- 76
2021-02-04 09:00:00 11 5 Oeste 23 Sudoeste 0 -- -- 81
2021-02-04 08:00:00 10.9 4 Sudoeste 19 Oeste 0 -- -- 81
2021-02-04 07:00:00 11.5 14 Oeste 37 Sudoeste 0 -- -- 77
2021-02-04 06:00:00 11.2 16 Oeste 37 Oeste 0 -- -- 80
2021-02-04 05:00:00 10.7 18 Oeste 33 Oeste 0.2 -- -- 85
2021-02-04 04:00:00 9.8 7 Noroeste 27 Oeste 0.4 -- -- 92
2021-02-04 03:00:00 9.6 13 Noroeste 37 Oeste 0.6 -- -- 94
2021-02-04 02:00:00 9.9 14 Oeste 32 Oeste 0 -- -- 91
2021-02-04 01:00:00 9.5 4 Noroeste 14 Noroeste 0 -- -- 97
2021-02-04 00:00:00 8.5 0 Calma 5 Norte 0 -- -- 98
2021-02-03 23:00:00 8.3 0 Calma 6 Norte 0 -- -- 98
2021-02-03 22:00:00 8.6 3 Este 5 Norte 0.4 -- -- 98
2021-02-03 21:00:00 9.1 2 Sudeste 6 Noroeste 0.8 -- -- 98
2021-02-03 20:00:00 9.2 0 Calma 5 Noroeste 1.2 -- -- 97
2021-02-03 19:00:00 9.6 0 Calma 5 Nordeste 0.2 -- -- 96
2021-02-03 18:00:00 10.3 3 Norte 9 Sudeste 0 -- -- 94
2021-02-03 17:00:00 11 2 Sudeste 4 Sudeste 0 -- -- 91
2021-02-03 16:00:00 10.7 0 Calma 14 Oeste 0.2 -- -- 92
2021-02-03 15:00:00 10.5 6 Oeste 19 Oeste 0.2 -- -- 90
2021-02-03 14:00:00 10.1 6 Oeste 9 Sudoeste 1.6 -- -- 94
2021-02-03 13:00:00 9.3 6 Oeste 12 Oeste 0.6 -- -- 91
2021-02-03 12:00:00 9.5 8 Oeste 21 Oeste 0.4 -- -- 86
2021-02-03 11:00:00 10.5 7 Oeste 31 Oeste 0 -- -- 76
2021-02-03 10:00:00 10.9 15 Oeste 41 Oeste 0 -- -- 70
2021-02-03 09:00:00 10.8 17 Oeste 30 Oeste 0 -- -- 70
2021-02-03 08:00:00 11 17 Oeste 31 Oeste 0 -- -- 69
2021-02-03 07:00:00 10.8 17 Sudoeste 34 Sudoeste 0 -- -- 71
2021-02-03 06:00:00 11 19 Sudoeste 39 Sur 0 -- -- 71
2021-02-03 05:00:00 10.8 22 Oeste 35 Oeste 0 -- -- 72
2021-02-03 04:00:00 10.9 13 Sudoeste 41 Sur 0 -- -- 72
2021-02-03 03:00:00 10.8 19 Oeste 39 Oeste 0 -- -- 75
2021-02-03 02:00:00 10.4 18 Oeste 36 Oeste 0 -- -- 78
2021-02-03 01:00:00 10.2 21 Oeste 35 Oeste 0 -- -- 80
2021-02-03 00:00:00 10.6 15 Oeste 40 Sudoeste 0 -- -- 77
2021-02-02 23:00:00 11.9 22 Sudoeste 43 Sudoeste 0 -- -- 71
2021-02-02 22:00:00 12.1 15 Sudoeste 41 Sudoeste 0 -- -- 72
2021-02-02 21:00:00 11 4 Sur 27 Oeste 0 -- -- 78
2021-02-02 20:00:00 10.9 8 Oeste 13 Oeste 0 -- -- 82
2021-02-02 19:00:00 11.8 4 Nordeste 22 Oeste 0 -- -- 81
2021-02-02 18:00:00 13.4 7 Oeste 20 Sudoeste 0 -- -- 70
2021-02-02 17:00:00 14.1 12 Oeste 22 Oeste 0 -- -- 68
2021-02-02 16:00:00 14.2 9 Oeste 17 Oeste 0 -- -- 70
2021-02-02 15:00:00 13.9 10 Sudoeste 30 Sudoeste 0 -- -- 70
2021-02-02 14:00:00 13.5 18 Sudoeste 34 Sudoeste 0 -- -- 70
2021-02-02 13:00:00 13 11 Sudoeste 24 Sudoeste 0 -- -- 74
2021-02-02 12:00:00 11 8 Sudoeste 22 Sudoeste 0.2 -- -- 100
2021-02-02 11:00:00 7.8 0 Calma 5 Sudeste 0 -- -- 100
2021-02-02 10:00:00 5.9 0 Calma 4 Noroeste 0 -- -- 100
2021-02-02 09:00:00 5.3 0 Calma 4 Noroeste 0 -- -- 100
2021-02-02 08:00:00 5.5 0 Calma 3 Sudeste 0 -- -- 100
2021-02-02 07:00:00 5.8 0 Calma 4 Norte 0 -- -- 100
2021-02-02 06:00:00 6.1 0 Calma 5 Noroeste 0 -- -- 99
2021-02-02 05:00:00 6.2 0 Calma 4 Noroeste 0 -- -- 99
2021-02-02 04:00:00 6.4 0 Calma 4 Nordeste 0 -- -- 99
2021-02-02 03:00:00 6.9 0 Calma 5 Nordeste 0 -- -- 99
2021-02-02 02:00:00 7.1 2 Oeste 6 Este 0 -- -- 99
2021-02-02 01:00:00 7.6 0 Calma 5 Este 0 -- -- 98
2021-02-02 00:00:00 7.7 0 Calma 3 Nordeste 0.2 -- -- 98
2021-02-01 23:00:00 7.6 2 Este 5 Sudeste 1 -- -- 98
2021-02-01 22:00:00 7.6 3 Norte 7 Este 0.8 -- -- 97
2021-02-01 21:00:00 7.8 4 Este 8 Sudeste 0.2 -- -- 95
2021-02-01 20:00:00 8.2 6 Sudeste 10 Nordeste 0 -- -- 92
2021-02-01 19:00:00 9.7 10 Nordeste 21 Nordeste 0 -- -- 87
2021-02-01 18:00:00 10.5 5 Nordeste 16 Nordeste 0 -- -- 86
2021-02-01 17:00:00 10.9 2 Este 10 Sudeste 0 -- -- 87
2021-02-01 16:00:00 11.1 5 Nordeste 19 Oeste 0 -- -- 85
2021-02-01 15:00:00 11.7 5 Oeste 33 Norte 0 -- -- 81
2021-02-01 14:00:00 11.5 11 Noroeste 25 Oeste 0.2 -- -- 81
2021-02-01 13:00:00 11.6 3 Sur 27 Noroeste 0 -- -- 74
2021-02-01 12:00:00 11.5 10 Noroeste 29 Norte 0 -- -- 66
2021-02-01 11:00:00 10.9 13 Norte 34 Norte 0 -- -- 68
2021-02-01 10:00:00 10 12 Noroeste 49 Norte 0 -- -- 70
2021-02-01 09:00:00 9.3 13 Nordeste 33 Norte 0 -- -- 73
2021-02-01 08:00:00 8.8 9 Este 21 Norte 0.2 -- -- 78
2021-02-01 07:00:00 7.9 7 Oeste 19 Sudeste 0.4 -- -- 88
2021-02-01 06:00:00 7.8 6 Sudeste 18 Sur 1.8 -- -- 90
2021-02-01 05:00:00 7.8 7 Sudoeste 22 Sudoeste 1.6 -- -- 91
2021-02-01 04:00:00 8.3 12 Oeste 32 Norte 1.6 -- -- 86
2021-02-01 03:00:00 8.6 10 Noroeste 43 Noroeste 1 -- -- 83
2021-02-01 02:00:00 8.7 5 Nordeste 25 Norte 1.4 -- -- 85
2021-02-01 01:00:00 9.4 6 Nordeste 32 Noroeste 0.6 -- -- 83
2021-02-01 00:00:00 8.2 10 Este 36 Sudeste 0.6 -- -- 100
2021-01-31 23:00:00 5.7 2 Sudeste 8 Noroeste 0.4 -- -- 99
2021-01-31 22:00:00 5.8 3 Este 8 Sudeste 0 -- -- 99
2021-01-31 21:00:00 6 0 Calma 5 Noroeste 0 -- -- 99
2021-01-31 20:00:00 6 0 Calma 5 Noroeste 0 -- -- 98
2021-01-31 19:00:00 7.2 0 Calma 3 Sudeste 0 -- -- 97
2021-01-31 18:00:00 7.9 0 Calma 5 Sudoeste 0 -- -- 96
2021-01-31 17:00:00 8 2 Este 14 Oeste 0 -- -- 97
2021-01-31 16:00:00 7.3 5 Sudoeste 10 Sur 0.4 -- -- 97
2021-01-31 15:00:00 7.5 5 Sudoeste 10 Oeste 0.6 -- -- 95
2021-01-31 14:00:00 7.5 6 Oeste 18 Oeste 1.2 -- -- 95
2021-01-31 13:00:00 7.1 17 Oeste 27 Oeste 1 -- -- 93
2021-01-31 12:00:00 7.5 5 Sudoeste 12 Oeste 0.2 -- -- 94
2021-01-31 11:00:00 7.1 5 Sudoeste 17 Sudeste 0 -- -- 93
2021-01-31 10:00:00 6.8 5 Sur 17 Este 0.4 -- -- 93
2021-01-31 09:00:00 6.9 3 Sudeste 21 Norte 0.4 -- -- 90
2021-01-31 08:00:00 7 6 Sudoeste 33 Noroeste 0.2 -- -- 89
2021-01-31 07:00:00 6.6 3 Sur 15 Sudoeste 0.4 -- -- 92
2021-01-31 06:00:00 6.1 4 Sudeste 15 Sur 1.8 -- -- 94
2021-01-31 05:00:00 6 4 Sudeste 17 Sur 1.4 -- -- 95
2021-01-31 04:00:00 5.4 4 Sudoeste 12 Sudoeste 2.4 -- -- 96
2021-01-31 03:00:00 5.5 3 Sudeste 17 Oeste 2.4 -- -- 93
2021-01-31 02:00:00 5.7 6 Sur 26 Oeste 1.8 -- -- 90
2021-01-31 01:00:00 5.4 6 Sur 19 Sudoeste 0.8 -- -- 92
2021-01-31 00:00:00 5.3 9 Oeste 33 Oeste 0.6 -- -- 93